createdAt,value
2022-11-20T00:00:14.168Z,3.66
2022-11-20T00:01:14.081Z,3.65
2022-11-20T00:02:14.069Z,3.59
2022-11-20T00:03:13.906Z,3.74
2022-11-20T00:04:13.825Z,3.59
2022-11-20T00:05:13.738Z,3.56
2022-11-20T00:06:13.651Z,3.61
2022-11-20T00:07:13.604Z,3.66
2022-11-20T00:08:13.490Z,3.66
2022-11-20T00:09:13.394Z,3.69
2022-11-20T00:10:13.308Z,3.71
2022-11-20T00:11:16.112Z,3.68
2022-11-20T00:12:13.134Z,3.72
2022-11-20T00:13:13.095Z,3.62
2022-11-20T00:14:12.959Z,3.57
2022-11-20T00:15:12.890Z,3.62
2022-11-20T00:16:12.786Z,3.62
2022-11-20T00:17:12.701Z,3.61
2022-11-20T00:18:12.613Z,3.51
2022-11-20T00:19:12.527Z,3.50
2022-11-20T00:20:12.441Z,3.59
2022-11-20T00:21:12.353Z,3.48
2022-11-20T00:22:12.266Z,3.56
2022-11-20T00:23:12.182Z,3.59
2022-11-20T00:24:12.099Z,3.51
2022-11-20T00:25:12.009Z,3.47
2022-11-20T00:26:11.976Z,3.37
2022-11-20T00:27:11.836Z,3.41
2022-11-20T00:28:11.755Z,3.53
2022-11-20T00:29:11.661Z,3.48
2022-11-20T00:30:14.854Z,3.46
2022-11-20T00:31:11.513Z,3.43
2022-11-20T00:32:11.403Z,3.37
2022-11-20T00:33:11.317Z,3.47
2022-11-20T00:34:11.238Z,3.53
2022-11-20T00:35:11.143Z,3.54
2022-11-20T00:36:11.055Z,3.54
2022-11-20T00:37:10.972Z,3.57
2022-11-20T00:38:10.886Z,3.48
2022-11-20T00:39:10.795Z,3.48
2022-11-20T00:40:10.711Z,3.57
2022-11-20T00:41:10.625Z,3.59
2022-11-20T00:42:10.537Z,3.56
2022-11-20T00:43:10.453Z,3.64
2022-11-20T00:44:10.367Z,3.75
2022-11-20T00:45:10.280Z,3.71
2022-11-20T00:46:10.192Z,3.66
2022-11-20T00:47:10.124Z,3.71
2022-11-20T00:48:10.021Z,3.75
2022-11-20T00:49:09.934Z,3.71
2022-11-20T00:50:09.848Z,3.72
2022-11-20T00:51:09.764Z,3.71
2022-11-20T00:52:09.675Z,3.74
2022-11-20T00:53:09.590Z,3.68
2022-11-20T00:54:09.500Z,3.80
2022-11-20T00:55:09.414Z,3.77
2022-11-20T00:56:09.329Z,3.86
2022-11-20T00:57:09.245Z,3.82
2022-11-20T00:58:14.142Z,3.84
2022-11-20T00:59:09.071Z,3.84
2022-11-20T01:00:08.984Z,3.84
2022-11-20T01:01:09.022Z,3.82
2022-11-20T01:02:08.811Z,3.68
2022-11-20T01:03:08.755Z,3.68
2022-11-20T01:04:08.641Z,3.75
2022-11-20T01:05:08.557Z,3.71
2022-11-20T01:06:08.469Z,3.80
2022-11-20T01:07:08.443Z,3.75
2022-11-20T01:08:08.295Z,3.79
2022-11-20T01:09:08.311Z,3.87
2022-11-20T01:10:08.123Z,3.82
2022-11-20T01:11:08.037Z,3.83
2022-11-20T01:12:07.950Z,3.77
2022-11-20T01:13:07.867Z,3.82
2022-11-20T01:14:07.779Z,3.82
2022-11-20T01:15:07.691Z,3.77
2022-11-20T01:16:07.605Z,3.66
2022-11-20T01:17:07.519Z,3.72
2022-11-20T01:18:07.434Z,3.61
2022-11-20T01:19:07.345Z,3.56
2022-11-20T01:20:07.259Z,3.62
2022-11-20T01:21:07.176Z,3.54
2022-11-20T01:22:07.090Z,3.62
2022-11-20T01:23:07.004Z,3.64
2022-11-20T01:24:06.914Z,3.64
2022-11-20T01:25:06.828Z,3.64
2022-11-20T01:26:06.741Z,3.62
2022-11-20T01:27:06.664Z,3.71
2022-11-20T01:28:06.569Z,3.69
2022-11-20T01:29:06.501Z,3.74
2022-11-20T01:30:06.402Z,3.74
2022-11-20T01:31:06.310Z,3.61
2022-11-20T01:32:06.222Z,3.69
2022-11-20T01:33:06.145Z,3.84
2022-11-20T01:34:06.050Z,3.83
2022-11-20T01:35:05.964Z,3.68
2022-11-20T01:36:05.875Z,3.80
2022-11-20T01:37:05.792Z,3.77
2022-11-20T01:38:05.702Z,3.65
2022-11-20T01:39:05.619Z,3.72
2022-11-20T01:40:05.533Z,3.79
2022-11-20T01:41:05.446Z,3.80
2022-11-20T01:42:09.695Z,3.75
2022-11-20T01:43:05.275Z,3.83
2022-11-20T01:44:05.186Z,3.84
2022-11-20T01:45:05.104Z,4.00
2022-11-20T01:46:05.012Z,3.94
2022-11-20T01:47:04.928Z,3.89
2022-11-20T01:48:04.841Z,4.01
2022-11-20T01:49:04.756Z,3.90
2022-11-20T01:50:04.668Z,3.89
2022-11-20T01:51:04.581Z,3.90
2022-11-20T01:52:04.495Z,3.87
2022-11-20T01:53:04.408Z,3.98
2022-11-20T01:54:04.323Z,4.04
2022-11-20T01:55:04.235Z,4.04
2022-11-20T01:56:04.148Z,4.11
2022-11-20T01:57:04.064Z,4.05
2022-11-20T01:58:03.976Z,4.00
2022-11-20T01:59:03.893Z,4.04
2022-11-20T02:00:03.807Z,4.11
2022-11-20T02:01:03.787Z,4.00
2022-11-20T02:02:03.632Z,4.05
2022-11-20T02:03:03.548Z,4.10
2022-11-20T02:04:03.459Z,4.01
2022-11-20T02:05:03.476Z,4.00
2022-11-20T02:06:03.287Z,4.05
2022-11-20T02:07:03.258Z,4.12
2022-11-20T02:08:03.114Z,4.15
2022-11-20T02:09:03.030Z,4.15
2022-11-20T02:10:02.947Z,4.15
2022-11-20T02:11:02.856Z,4.18
2022-11-20T02:12:02.770Z,4.11
2022-11-20T02:13:02.683Z,4.10
2022-11-20T02:14:02.595Z,4.12
2022-11-20T02:15:02.511Z,4.07
2022-11-20T02:16:02.424Z,4.02
2022-11-20T02:17:02.341Z,4.12
2022-11-20T02:18:02.252Z,4.18
2022-11-20T02:19:02.167Z,4.18
2022-11-20T02:20:02.106Z,4.10
2022-11-20T02:21:01.996Z,4.15
2022-11-20T02:22:01.906Z,4.22
2022-11-20T02:23:01.823Z,4.25
2022-11-20T02:24:01.745Z,4.29
2022-11-20T02:25:01.702Z,4.26
2022-11-20T02:26:01.566Z,4.25
2022-11-20T02:27:01.480Z,4.26
2022-11-20T02:28:01.394Z,4.25
2022-11-20T02:29:01.307Z,4.37
2022-11-20T02:30:01.219Z,4.32
2022-11-20T02:31:01.133Z,4.28
2022-11-20T02:32:01.046Z,4.29
2022-11-20T02:33:00.963Z,4.28
2022-11-20T02:34:00.879Z,4.26
2022-11-20T02:35:00.792Z,4.28
2022-11-20T02:36:00.706Z,4.30
2022-11-20T02:37:00.678Z,4.26
2022-11-20T02:38:00.533Z,4.28
2022-11-20T02:39:00.447Z,4.23
2022-11-20T02:40:00.365Z,4.28
2022-11-20T02:41:00.276Z,4.29
2022-11-20T02:42:00.191Z,4.28
2022-11-20T02:43:00.113Z,4.26
2022-11-20T02:44:00.015Z,4.28
2022-11-20T02:44:59.930Z,4.26
2022-11-20T02:45:59.895Z,4.29
2022-11-20T02:46:59.762Z,4.30
2022-11-20T02:47:59.674Z,4.29
2022-11-20T02:48:59.588Z,4.36
2022-11-20T02:49:59.500Z,4.28
2022-11-20T02:50:59.418Z,4.34
2022-11-20T02:51:59.329Z,4.37
2022-11-20T02:52:59.245Z,4.34
2022-11-20T02:53:59.156Z,4.29
2022-11-20T02:54:59.074Z,4.34
2022-11-20T02:55:58.987Z,4.34
2022-11-20T02:56:58.904Z,4.28
2022-11-20T02:57:58.814Z,4.38
2022-11-20T02:58:58.731Z,4.43
2022-11-20T02:59:58.640Z,4.44
2022-11-20T03:00:58.629Z,4.40
2022-11-20T03:01:58.473Z,4.47
2022-11-20T03:02:58.390Z,4.44
2022-11-20T03:03:58.303Z,4.30
2022-11-20T03:04:58.218Z,4.40
2022-11-20T03:05:58.130Z,4.36
2022-11-20T03:06:58.137Z,4.32
2022-11-20T03:07:57.959Z,4.41
2022-11-20T03:08:57.872Z,4.43
2022-11-20T03:09:58.084Z,4.50
2022-11-20T03:10:57.701Z,4.43
2022-11-20T03:11:57.611Z,4.44
2022-11-20T03:12:57.531Z,4.40
2022-11-20T03:13:57.442Z,4.43
2022-11-20T03:14:57.361Z,4.29
2022-11-20T03:15:57.271Z,4.38
2022-11-20T03:16:57.185Z,4.46
2022-11-20T03:17:57.099Z,4.38
2022-11-20T03:18:57.015Z,4.50
2022-11-20T03:19:56.927Z,4.55
2022-11-20T03:20:56.842Z,4.55
2022-11-20T03:21:56.755Z,4.47
2022-11-20T03:22:56.674Z,4.54
2022-11-20T03:23:56.584Z,4.52
2022-11-20T03:24:56.500Z,4.52
2022-11-20T03:25:56.413Z,4.58
2022-11-20T03:26:56.328Z,4.55
2022-11-20T03:27:56.344Z,4.54
2022-11-20T03:28:56.158Z,4.52
2022-11-20T03:29:56.069Z,4.54
2022-11-20T03:30:56.135Z,4.52
2022-11-20T03:31:55.901Z,4.58
2022-11-20T03:32:55.813Z,4.59
2022-11-20T03:33:55.727Z,4.47
2022-11-20T03:34:55.646Z,4.44
2022-11-20T03:35:55.557Z,4.52
2022-11-20T03:36:55.473Z,4.55
2022-11-20T03:37:55.387Z,4.44
2022-11-20T03:38:55.300Z,4.30
2022-11-20T03:39:55.214Z,4.37
2022-11-20T03:40:55.131Z,4.34
2022-11-20T03:41:55.042Z,4.28
2022-11-20T03:42:54.958Z,4.29
2022-11-20T03:43:54.872Z,4.32
2022-11-20T03:44:54.786Z,4.26
2022-11-20T03:45:54.702Z,4.34
2022-11-20T03:46:54.616Z,4.22
2022-11-20T03:47:54.532Z,4.28
2022-11-20T03:48:54.450Z,4.11
2022-11-20T03:49:54.357Z,4.11
2022-11-20T03:50:54.274Z,4.26
2022-11-20T03:51:54.184Z,4.30
2022-11-20T03:52:54.101Z,4.26
2022-11-20T03:53:54.016Z,4.26
2022-11-20T03:55:53.844Z,4.15
2022-11-20T03:56:53.760Z,4.20
2022-11-20T03:57:53.669Z,4.15
2022-11-20T03:58:53.582Z,4.11
2022-11-20T03:59:53.499Z,4.18
2022-11-20T04:00:53.416Z,4.19
2022-11-20T04:01:53.520Z,4.10
2022-11-20T04:02:53.239Z,4.19
2022-11-20T04:03:53.155Z,4.04
2022-11-20T04:04:53.069Z,4.11
2022-11-20T04:05:52.984Z,4.16
2022-11-20T04:06:52.897Z,4.05
2022-11-20T04:07:52.811Z,4.05
2022-11-20T04:08:54.164Z,4.07
2022-11-20T04:09:52.636Z,4.08
2022-11-20T04:10:52.549Z,4.18
2022-11-20T04:11:52.465Z,4.18
2022-11-20T04:12:52.380Z,4.20
2022-11-20T04:13:52.293Z,4.01
2022-11-20T04:14:52.208Z,4.11
2022-11-20T04:15:52.123Z,4.02
2022-11-20T04:16:52.036Z,4.04
2022-11-20T04:17:51.949Z,4.08
2022-11-20T04:18:51.861Z,4.04
2022-11-20T04:19:51.779Z,4.01
2022-11-20T04:20:51.692Z,4.12
2022-11-20T04:21:51.612Z,4.10
2022-11-20T04:22:51.517Z,4.16
2022-11-20T04:23:51.433Z,4.19
2022-11-20T04:24:51.345Z,4.16
2022-11-20T04:25:51.264Z,4.19
2022-11-20T04:26:51.171Z,4.12
2022-11-20T04:27:51.086Z,4.04
2022-11-20T04:28:51.007Z,4.22
2022-11-20T04:29:50.917Z,4.07
2022-11-20T04:30:50.827Z,4.18
2022-11-20T04:31:50.741Z,4.05
2022-11-20T04:32:50.658Z,4.05
2022-11-20T04:33:50.571Z,4.16
2022-11-20T04:34:50.484Z,4.07
2022-11-20T04:35:50.398Z,4.12
2022-11-20T04:36:50.314Z,4.19
2022-11-20T04:37:50.225Z,4.16
2022-11-20T04:38:55.316Z,4.22
2022-11-20T04:39:50.055Z,4.15
2022-11-20T04:40:49.971Z,4.29
2022-11-20T04:41:49.881Z,4.29
2022-11-20T04:42:49.797Z,4.26
2022-11-20T04:43:49.715Z,4.15
2022-11-20T04:44:49.626Z,4.26
2022-11-20T04:45:49.540Z,4.26
2022-11-20T04:46:49.453Z,4.25
2022-11-20T04:47:49.372Z,4.28
2022-11-20T04:48:49.430Z,4.23
2022-11-20T04:49:49.232Z,4.19
2022-11-20T04:50:49.111Z,4.19
2022-11-20T04:51:49.021Z,4.20
2022-11-20T04:52:48.940Z,4.23
2022-11-20T04:53:48.853Z,4.25
2022-11-20T04:54:48.767Z,4.29
2022-11-20T04:55:48.681Z,4.30
2022-11-20T04:56:48.841Z,4.28
2022-11-20T04:57:48.507Z,4.25
2022-11-20T04:58:48.423Z,4.28
2022-11-20T04:59:48.337Z,4.25
2022-11-20T05:00:48.250Z,4.26
2022-11-20T05:01:48.233Z,4.36
2022-11-20T05:02:48.079Z,4.37
2022-11-20T05:03:47.992Z,4.28
2022-11-20T05:04:47.909Z,4.34
2022-11-20T05:05:47.820Z,4.40
2022-11-20T05:06:47.735Z,4.36
2022-11-20T05:07:47.648Z,4.29
2022-11-20T05:08:47.563Z,4.43
2022-11-20T05:09:47.476Z,4.55
2022-11-20T05:10:47.390Z,4.48
2022-11-20T05:11:51.365Z,4.44
2022-11-20T05:12:47.271Z,4.48
2022-11-20T05:13:47.133Z,4.52
2022-11-20T05:14:47.049Z,4.55
2022-11-20T05:15:46.963Z,4.52
2022-11-20T05:16:46.878Z,4.66
2022-11-20T05:17:46.792Z,4.61
2022-11-20T05:18:46.706Z,4.65
2022-11-20T05:19:49.395Z,4.73
2022-11-20T05:20:46.537Z,4.68
2022-11-20T05:21:46.756Z,4.77
2022-11-20T05:22:46.361Z,4.68
2022-11-20T05:23:46.276Z,4.68
2022-11-20T05:24:46.193Z,4.66
2022-11-20T05:25:46.104Z,4.74
2022-11-20T05:26:46.019Z,4.74
2022-11-20T05:27:45.933Z,4.79
2022-11-20T05:28:45.848Z,4.79
2022-11-20T05:29:45.762Z,4.77
2022-11-20T05:30:45.680Z,4.72
2022-11-20T05:31:45.595Z,4.74
2022-11-20T05:32:45.508Z,4.65
2022-11-20T05:33:45.419Z,4.64
2022-11-20T05:34:45.336Z,4.62
2022-11-20T05:35:45.248Z,4.68
2022-11-20T05:36:45.176Z,4.58
2022-11-20T05:37:45.075Z,4.59
2022-11-20T05:38:47.027Z,4.52
2022-11-20T05:39:44.908Z,4.56
2022-11-20T05:40:44.824Z,4.47
2022-11-20T05:41:44.733Z,4.50
2022-11-20T05:42:44.663Z,4.55
2022-11-20T05:43:44.567Z,4.55
2022-11-20T05:44:44.481Z,4.50
2022-11-20T05:45:44.393Z,4.54
2022-11-20T05:46:44.313Z,4.59
2022-11-20T05:47:44.222Z,4.50
2022-11-20T05:48:44.139Z,4.54
2022-11-20T05:49:44.051Z,4.56
2022-11-20T05:50:43.964Z,4.64
2022-11-20T05:51:43.879Z,4.65
2022-11-20T05:52:43.795Z,4.65
2022-11-20T05:53:48.032Z,4.64
2022-11-20T05:54:43.622Z,4.66
2022-11-20T05:55:43.537Z,4.68
2022-11-20T05:56:43.453Z,4.68
2022-11-20T05:57:43.366Z,4.79
2022-11-20T05:58:43.281Z,4.73
2022-11-20T05:59:43.194Z,4.65
2022-11-20T06:00:43.112Z,4.64
2022-11-20T06:01:43.023Z,4.65
2022-11-20T06:02:42.991Z,4.65
2022-11-20T06:03:42.852Z,4.62
2022-11-20T06:04:42.767Z,4.62
2022-11-20T06:05:42.681Z,4.74
2022-11-20T06:06:42.595Z,4.76
2022-11-20T06:07:42.559Z,4.66
2022-11-20T06:08:42.430Z,4.80
2022-11-20T06:09:42.338Z,4.74
2022-11-20T06:10:42.254Z,4.76
2022-11-20T06:11:42.166Z,4.73
2022-11-20T06:12:42.082Z,4.76
2022-11-20T06:13:42.730Z,4.77
2022-11-20T06:14:41.910Z,4.77
2022-11-20T06:15:41.823Z,4.85
2022-11-20T06:16:41.740Z,4.88
2022-11-20T06:17:41.652Z,4.91
2022-11-20T06:18:41.671Z,4.91
2022-11-20T06:19:41.481Z,4.87
2022-11-20T06:20:42.321Z,4.92
2022-11-20T06:21:41.312Z,4.95
2022-11-20T06:22:41.225Z,4.96
2022-11-20T06:23:41.143Z,5.00
2022-11-20T06:24:41.157Z,5.08
2022-11-20T06:25:40.970Z,5.05
2022-11-20T06:26:40.885Z,5.08
2022-11-20T06:27:40.800Z,5.14
2022-11-20T06:28:40.717Z,5.20
2022-11-20T06:29:40.629Z,5.16
2022-11-20T06:30:40.544Z,5.17
2022-11-20T06:31:40.459Z,5.17
2022-11-20T06:32:40.373Z,5.20
2022-11-20T06:33:40.286Z,5.23
2022-11-20T06:34:40.203Z,5.21
2022-11-20T06:35:40.114Z,5.17
2022-11-20T06:36:40.036Z,5.20
2022-11-20T06:37:39.946Z,5.21
2022-11-20T06:38:39.862Z,5.31
2022-11-20T06:39:39.777Z,5.20
2022-11-20T06:40:39.691Z,5.29
2022-11-20T06:41:39.603Z,5.23
2022-11-20T06:42:39.521Z,5.17
2022-11-20T06:43:39.434Z,5.24
2022-11-20T06:44:39.354Z,5.26
2022-11-20T06:45:39.265Z,5.11
2022-11-20T06:46:39.182Z,5.14
2022-11-20T06:47:39.098Z,5.11
2022-11-20T06:48:39.011Z,5.10
2022-11-20T06:49:38.923Z,5.11
2022-11-20T06:50:38.842Z,5.10
2022-11-20T06:51:38.756Z,5.11
2022-11-20T06:52:43.540Z,4.96
2022-11-20T06:53:38.588Z,4.92
2022-11-20T06:54:38.501Z,4.83
2022-11-20T06:55:38.414Z,4.88
2022-11-20T06:56:38.329Z,4.84
2022-11-20T06:57:38.242Z,4.83
2022-11-20T06:58:38.161Z,4.83
2022-11-20T06:59:38.075Z,4.77
2022-11-20T07:00:38.072Z,4.83
2022-11-20T07:01:37.904Z,4.93
2022-11-20T07:02:37.819Z,4.91
2022-11-20T07:03:37.738Z,4.92
2022-11-20T07:04:37.649Z,4.87
2022-11-20T07:05:37.713Z,4.95
2022-11-20T07:06:37.477Z,4.84
2022-11-20T07:07:37.424Z,4.76
2022-11-20T07:08:37.310Z,4.83
2022-11-20T07:09:37.219Z,4.96
2022-11-20T07:10:37.141Z,4.92
2022-11-20T07:11:37.050Z,5.02
2022-11-20T07:12:36.968Z,4.91
2022-11-20T07:13:36.884Z,4.95
2022-11-20T07:14:36.797Z,5.13
2022-11-20T07:15:36.709Z,4.98
2022-11-20T07:16:36.628Z,4.88
2022-11-20T07:17:36.539Z,4.92
2022-11-20T07:18:36.457Z,5.06
2022-11-20T07:19:36.673Z,4.98
2022-11-20T07:20:36.288Z,5.02
2022-11-20T07:21:36.207Z,5.06
2022-11-20T07:22:36.117Z,5.06
2022-11-20T07:23:36.030Z,5.14
2022-11-20T07:24:35.945Z,5.05
2022-11-20T07:25:35.859Z,5.13
2022-11-20T07:26:35.925Z,5.06
2022-11-20T07:27:35.690Z,5.03
2022-11-20T07:28:35.605Z,5.14
2022-11-20T07:29:35.523Z,5.13
2022-11-20T07:30:35.436Z,5.11
2022-11-20T07:31:35.352Z,5.13
2022-11-20T07:32:35.266Z,5.24
2022-11-20T07:33:35.181Z,5.16
2022-11-20T07:34:35.096Z,5.05
2022-11-20T07:35:35.007Z,5.18
2022-11-20T07:36:34.925Z,5.05
2022-11-20T07:37:34.843Z,5.05
2022-11-20T07:38:34.753Z,5.02
2022-11-20T07:39:34.672Z,5.05
2022-11-20T07:40:34.586Z,5.00
2022-11-20T07:41:34.797Z,5.10
2022-11-20T07:42:34.413Z,4.93
2022-11-20T07:43:39.799Z,5.00
2022-11-20T07:44:34.244Z,4.92
2022-11-20T07:45:34.158Z,4.92
2022-11-20T07:46:34.074Z,4.92
2022-11-20T07:47:33.987Z,4.92
2022-11-20T07:48:33.902Z,4.87
2022-11-20T07:49:33.817Z,4.80
2022-11-20T07:50:33.732Z,4.73
2022-11-20T07:51:33.648Z,4.79
2022-11-20T07:52:33.563Z,4.72
2022-11-20T07:53:33.477Z,4.77
2022-11-20T07:54:33.393Z,4.83
2022-11-20T07:55:33.306Z,4.96
2022-11-20T07:56:33.220Z,4.80
2022-11-20T07:57:33.134Z,4.87
2022-11-20T07:58:33.051Z,4.79
2022-11-20T07:59:32.962Z,4.76
2022-11-20T08:00:32.910Z,4.77
2022-11-20T08:01:32.791Z,4.73
2022-11-20T08:02:32.706Z,4.62
2022-11-20T08:03:32.621Z,4.64
2022-11-20T08:04:32.537Z,4.74
2022-11-20T08:05:32.451Z,4.77
2022-11-20T08:06:32.368Z,4.77
2022-11-20T08:07:32.296Z,4.83
2022-11-20T08:08:33.805Z,4.72
2022-11-20T08:09:32.107Z,4.64
2022-11-20T08:10:32.023Z,4.66
2022-11-20T08:11:31.987Z,4.65
2022-11-20T08:12:31.852Z,4.65
2022-11-20T08:13:31.765Z,4.66
2022-11-20T08:14:31.685Z,4.65
2022-11-20T08:15:31.593Z,4.68
2022-11-20T08:17:31.423Z,4.68
2022-11-20T08:18:32.684Z,4.65
2022-11-20T08:19:31.250Z,4.61
2022-11-20T08:20:31.165Z,4.61
2022-11-20T08:21:35.259Z,4.61
2022-11-20T08:22:30.992Z,4.56
2022-11-20T08:23:30.907Z,4.61
2022-11-20T08:24:30.822Z,4.64
2022-11-20T08:25:30.733Z,4.64
2022-11-20T08:26:30.649Z,4.59
2022-11-20T08:28:30.479Z,4.61
2022-11-20T08:29:30.390Z,4.59
2022-11-20T08:30:30.305Z,4.59
2022-11-20T08:31:30.218Z,4.58
2022-11-20T08:32:30.137Z,4.50
2022-11-20T08:33:30.051Z,4.47
2022-11-20T08:34:29.962Z,4.43
2022-11-20T08:35:29.873Z,4.32
2022-11-20T08:36:29.792Z,4.37
2022-11-20T08:37:29.702Z,4.48
2022-11-20T08:38:29.618Z,4.59
2022-11-20T08:39:29.533Z,4.52
2022-11-20T08:40:29.446Z,4.54
2022-11-20T08:41:29.362Z,4.48
2022-11-20T08:42:29.274Z,4.38
2022-11-20T08:43:29.188Z,4.44
2022-11-20T08:44:29.108Z,4.54
2022-11-20T08:45:33.763Z,4.54
2022-11-20T08:46:28.930Z,4.56
2022-11-20T08:47:28.847Z,4.50
2022-11-20T08:48:28.758Z,4.52
2022-11-20T08:49:28.673Z,4.52
2022-11-20T08:50:28.587Z,4.52
2022-11-20T08:51:28.503Z,4.55
2022-11-20T08:52:28.414Z,4.54
2022-11-20T08:53:28.329Z,4.55
2022-11-20T08:54:28.243Z,4.54
2022-11-20T08:55:28.160Z,4.43
2022-11-20T08:56:28.070Z,4.34
2022-11-20T08:57:27.992Z,4.41
2022-11-20T08:58:27.898Z,4.40
2022-11-20T08:59:50.711Z,4.50
2022-11-20T09:00:27.730Z,4.54
2022-11-20T09:01:27.776Z,4.68
2022-11-20T09:02:27.606Z,4.64
2022-11-20T09:03:32.508Z,4.69
2022-11-20T09:04:27.389Z,4.74
2022-11-20T09:05:27.300Z,4.74
2022-11-20T09:06:27.216Z,4.74
2022-11-20T09:07:27.169Z,4.77
2022-11-20T09:08:27.042Z,4.79
2022-11-20T09:09:26.958Z,4.87
2022-11-20T09:10:26.873Z,4.85
2022-11-20T09:11:26.788Z,4.87
2022-11-20T09:12:26.702Z,4.83
2022-11-20T09:13:26.617Z,4.88
2022-11-20T09:14:26.531Z,4.85
2022-11-20T09:15:26.447Z,4.95
2022-11-20T09:16:26.359Z,4.96
2022-11-20T09:17:26.279Z,4.84
2022-11-20T09:18:26.191Z,4.92
2022-11-20T09:19:35.452Z,4.92
2022-11-20T09:20:26.022Z,5.02
2022-11-20T09:21:25.981Z,4.93
2022-11-20T09:22:25.848Z,4.92
2022-11-20T09:23:25.763Z,4.99
2022-11-20T09:24:25.679Z,5.02
2022-11-20T09:25:25.591Z,5.05
2022-11-20T09:26:25.509Z,5.06
2022-11-20T09:27:25.425Z,5.08
2022-11-20T09:28:25.337Z,5.08
2022-11-20T09:29:25.255Z,5.06
2022-11-20T09:30:25.168Z,5.06
2022-11-20T09:31:25.084Z,5.03
2022-11-20T09:32:24.998Z,5.13
2022-11-20T09:33:24.914Z,5.05
2022-11-20T09:34:24.826Z,5.06
2022-11-20T09:35:24.746Z,5.05
2022-11-20T09:36:24.656Z,5.05
2022-11-20T09:37:24.571Z,5.02
2022-11-20T09:38:24.488Z,5.13
2022-11-20T09:39:24.680Z,5.10
2022-11-20T09:40:24.318Z,5.08
2022-11-20T09:41:24.232Z,5.17
2022-11-20T09:42:24.150Z,5.11
2022-11-20T09:43:24.064Z,5.17
2022-11-20T09:44:23.978Z,5.20
2022-11-20T09:45:23.895Z,5.24
2022-11-20T09:46:23.805Z,5.18
2022-11-20T09:47:23.725Z,5.35
2022-11-20T09:48:23.637Z,5.24
2022-11-20T09:49:29.018Z,5.31
2022-11-20T09:50:23.466Z,5.29
2022-11-20T09:51:23.384Z,5.32
2022-11-20T09:52:23.295Z,5.34
2022-11-20T09:53:23.211Z,5.49
2022-11-20T09:54:23.128Z,5.49
2022-11-20T09:55:23.041Z,5.41
2022-11-20T09:56:23.100Z,5.44
2022-11-20T09:57:22.872Z,5.47
2022-11-20T09:58:22.787Z,5.52
2022-11-20T09:59:23.001Z,5.57
2022-11-20T10:00:22.616Z,5.54
2022-11-20T10:01:22.755Z,5.54
2022-11-20T10:02:22.446Z,5.50
2022-11-20T10:03:22.364Z,5.59
2022-11-20T10:04:22.277Z,5.67
2022-11-20T10:05:22.195Z,5.72
2022-11-20T10:06:22.109Z,5.63
2022-11-20T10:07:37.511Z,5.62
2022-11-20T10:08:22.044Z,5.77
2022-11-20T10:09:22.075Z,5.75
2022-11-20T10:10:21.792Z,5.63
2022-11-20T10:11:21.687Z,5.60
2022-11-20T10:12:21.599Z,5.68
2022-11-20T10:13:21.517Z,5.71
2022-11-20T10:14:21.532Z,5.72
2022-11-20T10:15:21.347Z,5.88
2022-11-20T10:16:21.263Z,5.81
2022-11-20T10:17:21.182Z,5.75
2022-11-20T10:18:21.097Z,5.81
2022-11-20T10:19:21.311Z,5.92
2022-11-20T10:20:20.924Z,5.97
2022-11-20T10:21:21.016Z,5.95
2022-11-20T10:22:20.756Z,6.00
2022-11-20T10:23:25.609Z,6.04
2022-11-20T10:24:20.587Z,6.04
2022-11-20T10:25:20.510Z,6.04
2022-11-20T10:26:20.421Z,6.10
2022-11-20T10:27:20.335Z,6.10
2022-11-20T10:28:20.250Z,6.08
2022-11-20T10:29:20.175Z,6.13
2022-11-20T10:30:20.082Z,6.08
2022-11-20T10:31:20.042Z,6.10
2022-11-20T10:32:19.915Z,6.08
2022-11-20T10:33:19.831Z,6.17
2022-11-20T10:34:23.025Z,6.22
2022-11-20T10:35:19.662Z,6.24
2022-11-20T10:36:19.584Z,6.26
2022-11-20T10:37:19.494Z,6.27
2022-11-20T10:38:19.411Z,6.36
2022-11-20T10:39:19.999Z,6.37
2022-11-20T10:40:19.241Z,6.37
2022-11-20T10:41:19.160Z,6.27
2022-11-20T10:42:19.074Z,6.36
2022-11-20T10:43:38.196Z,6.37
2022-11-20T10:44:19.156Z,6.27
2022-11-20T10:45:18.873Z,6.18
2022-11-20T10:46:18.738Z,6.18
2022-11-20T10:47:18.657Z,6.14
2022-11-20T10:48:18.572Z,6.10
2022-11-20T10:49:18.649Z,6.10
2022-11-20T10:50:22.220Z,6.08
2022-11-20T10:51:18.321Z,6.10
2022-11-20T10:52:18.335Z,6.30
2022-11-20T10:53:18.353Z,6.18
2022-11-20T10:54:18.070Z,6.15
2022-11-20T10:55:17.987Z,6.32
2022-11-20T10:56:17.900Z,6.34
2022-11-20T10:57:17.816Z,6.29
2022-11-20T10:58:17.732Z,6.18
2022-11-20T10:59:17.651Z,6.30
2022-11-20T11:00:17.634Z,6.24
2022-11-20T11:01:17.686Z,6.33
2022-11-20T11:02:17.398Z,6.29
2022-11-20T11:03:17.315Z,6.29
2022-11-20T11:04:17.230Z,6.18
2022-11-20T11:05:17.149Z,6.17
2022-11-20T11:06:17.062Z,6.18
2022-11-20T11:07:17.046Z,6.34
2022-11-20T11:08:16.903Z,6.30
2022-11-20T11:09:16.810Z,6.24
2022-11-20T11:10:16.727Z,6.21
2022-11-20T11:11:16.644Z,6.29
2022-11-20T11:12:16.561Z,6.26
2022-11-20T11:13:16.476Z,6.30
2022-11-20T11:14:16.392Z,6.24
2022-11-20T11:15:16.319Z,6.30
2022-11-20T11:16:16.224Z,6.33
2022-11-20T11:17:16.140Z,6.41
2022-11-20T11:18:16.057Z,6.44
2022-11-20T11:19:15.974Z,6.36
2022-11-20T11:20:15.892Z,6.36
2022-11-20T11:21:15.807Z,6.34
2022-11-20T11:22:15.722Z,6.36
2022-11-20T11:23:15.640Z,6.39
2022-11-20T11:24:40.401Z,6.26
2022-11-20T11:25:15.472Z,6.32
2022-11-20T11:26:15.389Z,6.21
2022-11-20T11:27:17.622Z,6.36
2022-11-20T11:28:15.221Z,6.30
2022-11-20T11:29:15.137Z,6.33
2022-11-20T11:30:15.056Z,6.42
2022-11-20T11:31:14.967Z,6.37
2022-11-20T11:32:14.887Z,6.39
2022-11-20T11:33:14.803Z,6.51
2022-11-20T11:34:14.719Z,6.57
2022-11-20T11:35:14.637Z,6.50
2022-11-20T11:36:14.552Z,6.55
2022-11-20T11:37:14.472Z,6.65
2022-11-20T11:38:14.385Z,6.52
2022-11-20T11:39:14.303Z,6.51
2022-11-20T11:40:29.575Z,6.63
2022-11-20T11:41:14.133Z,6.72
2022-11-20T11:42:14.049Z,6.68
2022-11-20T11:43:13.967Z,6.68
2022-11-20T11:44:13.885Z,6.70
2022-11-20T11:45:13.799Z,6.73
2022-11-20T11:46:13.716Z,6.76
2022-11-20T11:47:13.633Z,6.75
2022-11-20T11:48:13.549Z,6.72
2022-11-20T11:49:13.465Z,6.76
2022-11-20T11:50:13.383Z,6.72
2022-11-20T11:51:13.301Z,6.75
2022-11-20T11:52:13.235Z,6.72
2022-11-20T11:53:13.132Z,6.75
2022-11-20T11:54:13.046Z,6.70
2022-11-20T11:55:12.975Z,6.69
2022-11-20T11:56:12.885Z,6.70
2022-11-20T11:57:12.801Z,6.69
2022-11-20T11:58:12.720Z,6.72
2022-11-20T11:59:12.633Z,6.72
2022-11-20T12:00:12.549Z,6.73
2022-11-20T12:01:12.471Z,6.72
2022-11-20T12:02:12.429Z,6.73
2022-11-20T12:03:12.301Z,6.83
2022-11-20T12:04:12.216Z,6.73
2022-11-20T12:05:12.133Z,6.76
2022-11-20T12:06:12.098Z,6.78
2022-11-20T12:07:38.743Z,6.84
2022-11-20T12:08:12.838Z,6.86
2022-11-20T12:09:11.799Z,6.84
2022-11-20T12:10:11.715Z,6.98
2022-11-20T12:11:11.634Z,6.94
2022-11-20T12:12:11.548Z,6.88
2022-11-20T12:13:11.465Z,6.86
2022-11-20T12:14:11.381Z,6.91
2022-11-20T12:15:11.301Z,6.93
2022-11-20T12:16:11.316Z,7.05
2022-11-20T12:17:11.133Z,7.03
2022-11-20T12:18:11.049Z,7.05
2022-11-20T12:19:11.068Z,6.99
2022-11-20T12:20:10.886Z,7.11
2022-11-20T12:21:10.800Z,7.08
2022-11-20T12:22:10.814Z,7.11
2022-11-20T12:23:10.634Z,7.05
2022-11-20T12:24:10.550Z,7.16
2022-11-20T12:25:10.473Z,7.08
2022-11-20T12:26:10.384Z,7.16
2022-11-20T12:27:10.304Z,7.05
2022-11-20T12:28:10.218Z,7.03
2022-11-20T12:29:10.136Z,7.08
2022-11-20T12:30:10.068Z,7.06
2022-11-20T12:31:09.972Z,7.05
2022-11-20T12:32:09.889Z,7.01
2022-11-20T12:33:09.803Z,6.99
2022-11-20T12:34:09.719Z,7.03
2022-11-20T12:35:11.569Z,6.99
2022-11-20T12:36:09.555Z,6.98
2022-11-20T12:37:09.472Z,7.02
2022-11-20T12:38:09.386Z,7.02
2022-11-20T12:39:09.306Z,6.96
2022-11-20T12:40:09.221Z,7.03
2022-11-20T12:41:09.138Z,6.98
2022-11-20T12:42:09.053Z,6.93
2022-11-20T12:43:08.974Z,7.08
2022-11-20T12:44:08.888Z,7.09
2022-11-20T12:45:08.806Z,7.11
2022-11-20T12:46:08.721Z,7.08
2022-11-20T12:47:08.639Z,7.01
2022-11-20T12:48:08.553Z,7.16
2022-11-20T12:49:08.475Z,7.17
2022-11-20T12:50:08.482Z,7.13
2022-11-20T12:51:15.255Z,7.16
2022-11-20T12:52:08.225Z,7.12
2022-11-20T12:53:08.141Z,7.16
2022-11-20T12:54:08.056Z,7.09
2022-11-20T12:55:07.976Z,7.16
2022-11-20T12:56:07.890Z,7.17
2022-11-20T12:57:07.807Z,7.13
2022-11-20T12:58:07.728Z,7.09
2022-11-20T12:59:07.644Z,7.20
2022-11-20T13:00:07.644Z,7.21
2022-11-20T13:01:07.516Z,7.17
2022-11-20T13:02:07.394Z,7.17
2022-11-20T13:03:07.409Z,7.21
2022-11-20T13:04:10.429Z,7.13
2022-11-20T13:05:07.141Z,7.19
2022-11-20T13:06:07.061Z,7.17
2022-11-20T13:07:07.039Z,7.12
2022-11-20T13:08:06.897Z,7.05
2022-11-20T13:09:06.813Z,7.05
2022-11-20T13:10:12.793Z,7.13
2022-11-20T13:11:06.647Z,7.17
2022-11-20T13:12:06.565Z,7.17
2022-11-20T13:13:06.478Z,7.12
2022-11-20T13:14:06.399Z,7.13
2022-11-20T13:15:06.315Z,7.29
2022-11-20T13:16:06.233Z,7.29
2022-11-20T13:17:06.513Z,7.27
2022-11-20T13:18:06.065Z,7.20
2022-11-20T13:19:05.984Z,7.31
2022-11-20T13:20:05.935Z,7.35